Time;durP1;ratioP1;P1;durP2;ratioP2;P2;SDS_P1;SDS_P2;PMS_P1;PMS_P2;Temp;Humidity;BMP_temperature;BMP_pressure;BME280_temperature;BME280_humidity;BME280_pressure;Samples;Min_cycle;Max_cycle;Signal;HPM_P1;HPM_P2
2022/01/11 00:02:00;;;;;;;68.65;29.15;;;;;;;-1.60;100.00;102980.44;10460639;28;20052;-54
2022/01/11 00:07:06;;;;;;;91.90;31.67;;;;;;;-1.71;100.00;102977.56;10459243;28;20053;-53
2022/01/11 00:12:10;;;;;;;42.08;20.88;;;;;;;-1.29;100.00;102981.25;10460608;28;20053;-52
2022/01/11 00:17:13;;;;;;;65.55;27.15;;;;;;;-1.30;100.00;102988.13;10459863;28;20493;-49
2022/01/11 00:22:19;;;;;;;83.30;32.38;;;;;;;-1.55;100.00;102991.72;10459760;28;20045;-53
2022/01/11 00:27:21;;;;;;;91.32;32.95;;;;;;;-1.27;100.00;102988.19;10459684;28;20049;-53
2022/01/11 00:32:36;;;;;;;83.45;32.03;;;;;;;-1.29;100.00;102999.25;10463103;28;20053;-55
2022/01/11 00:37:39;;;;;;;86.63;29.15;;;;;;;-1.15;100.00;102998.81;10464185;28;20060;-51
2022/01/11 00:42:41;;;;;;;79.60;31.85;;;;;;;-1.41;100.00;103003.25;10458857;28;20057;-51
2022/01/11 00:47:43;;;;;;;70.15;29.13;;;;;;;-1.12;100.00;102995.47;10456918;28;20049;-53
2022/01/11 00:52:46;;;;;;;71.90;31.80;;;;;;;-1.40;100.00;102986.13;10457297;28;20053;-48
2022/01/11 00:57:48;;;;;;;73.63;31.67;;;;;;;-1.53;100.00;102990.94;10458506;28;20056;-53
2022/01/11 01:02:50;;;;;;;100.63;37.72;;;;;;;-1.51;100.00;102998.69;10458034;28;20049;-51
2022/01/11 01:07:53;;;;;;;74.82;31.13;;;;;;;-1.46;100.00;103009.06;10456525;28;20547;-53
2022/01/11 01:12:59;;;;;;;108.93;37.55;;;;;;;-1.27;100.00;103021.63;10457460;28;20056;-51
2022/01/11 01:18:02;;;;;;;80.10;33.25;;;;;;;-1.15;100.00;103029.66;10457177;28;20064;-49
2022/01/11 01:23:05;;;;;;;102.05;37.08;;;;;;;-1.28;100.00;103043.00;10457202;28;20045;-55
2022/01/11 01:28:07;;;;;;;105.38;36.40;;;;;;;-1.12;100.00;103052.88;10457068;28;20048;-54
2022/01/11 01:33:09;;;;;;;87.30;33.78;;;;;;;-1.07;100.00;103039.28;10457113;28;20052;-54
2022/01/11 01:38:12;;;;;;;66.65;31.02;;;;;;;-1.26;100.00;103045.63;10455223;28;20060;-54
2022/01/11 01:43:14;;;;;;;105.13;36.58;;;;;;;-1.13;100.00;103038.31;10456714;28;20049;-51
2022/01/11 01:48:17;;;;;;;96.75;36.40;;;;;;;-1.30;100.00;103044.66;10456638;28;20049;-56
2022/01/11 01:53:19;;;;;;;68.10;29.60;;;;;;;-1.23;100.00;103046.56;10456645;28;20063;-50
2022/01/11 01:58:22;;;;;;;84.72;33.47;;;;;;;-1.29;100.00;103045.53;10456233;28;20045;-52
2022/01/11 02:03:26;;;;;;;86.57;32.10;;;;;;;-1.14;100.00;103045.97;10456181;28;20400;-50
2022/01/11 02:08:29;;;;;;;73.07;29.75;;;;;;;-1.26;100.00;103048.19;10456226;28;20060;-53
2022/01/11 02:13:31;;;;;;;87.75;33.58;;;;;;;-1.19;100.00;103032.97;10456466;28;20171;-49
2022/01/11 02:18:34;;;;;;;82.60;32.63;;;;;;;-1.17;100.00;103041.59;10456024;28;20055;-51
2022/01/11 02:23:36;;;;;;;63.88;28.63;;;;;;;-1.38;100.00;103056.41;10457145;28;20417;-52
2022/01/11 02:28:39;;;;;;;71.28;31.15;;;;;;;-1.22;100.00;103063.75;10466755;28;20049;-49
2022/01/11 02:33:45;;;;;;;68.00;31.60;;;;;;;-1.49;100.00;103068.97;10456502;28;20053;-54
2022/01/11 02:38:52;;;;;;;61.55;29.27;;;;;;;-1.31;100.00;103061.78;10455924;28;20049;-52
2022/01/11 02:43:55;;;;;;;89.78;35.05;;;;;;;-1.20;100.00;103059.50;10456384;28;20052;-54
2022/01/11 02:48:58;;;;;;;72.10;32.83;;;;;;;-1.51;100.00;103058.66;10454427;28;20056;-55
2022/01/11 02:54:01;;;;;;;88.55;33.50;;;;;;;-1.51;100.00;103062.94;10455168;28;20386;-54
2022/01/11 02:59:03;;;;;;;79.63;34.40;;;;;;;-1.34;100.00;103063.41;10454051;28;20382;-54
2022/01/11 03:04:07;;;;;;;79.60;35.25;;;;;;;-1.39;100.00;103052.13;10467020;28;20045;-51
2022/01/11 03:09:09;;;;;;;85.00;35.92;;;;;;;-1.51;100.00;103056.09;10455437;28;20049;-52
2022/01/11 03:14:11;;;;;;;93.65;36.90;;;;;;;-1.47;100.00;103053.59;10462260;28;20599;-53
2022/01/11 03:19:14;;;;;;;93.20;37.25;;;;;;;-1.38;100.00;103059.00;10462335;28;20049;-53
2022/01/11 03:24:16;;;;;;;92.53;39.58;;;;;;;-1.48;100.00;103074.97;10462043;28;20051;-52
2022/01/11 03:29:18;;;;;;;79.65;36.42;;;;;;;-1.25;100.00;103083.34;10461840;28;20073;-56
2022/01/11 03:34:21;;;;;;;91.38;38.00;;;;;;;-1.14;100.00;103103.41;10461278;28;20410;-53
2022/01/11 03:39:24;;;;;;;63.38;32.65;;;;;;;-0.68;100.00;103097.75;10461601;28;20478;-51
2022/01/11 03:44:26;;;;;;;103.03;40.00;;;;;;;-1.06;100.00;103092.44;10470972;28;20052;-52
2022/01/11 03:49:28;;;;;;;78.85;36.28;;;;;;;-1.17;100.00;103084.44;10460924;28;20049;-51
2022/01/11 03:54:43;;;;;;;84.80;36.97;;;;;;;-1.23;100.00;103082.56;10460753;28;20061;-53
2022/01/11 03:59:46;;;;;;;72.32;35.10;;;;;;;-1.24;100.00;103080.84;10460910;28;20051;-53
2022/01/11 04:04:52;;;;;;;75.88;33.05;;;;;;;-1.32;100.00;103080.59;10460394;28;20048;-55
2022/01/11 04:09:56;;;;;;;78.57;32.60;;;;;;;-1.34;100.00;103079.69;10460606;28;20041;-52
2022/01/11 04:14:58;;;;;;;72.55;33.13;;;;;;;-1.32;100.00;103082.31;10460274;28;20055;-55
2022/01/11 04:20:00;;;;;;;72.93;33.33;;;;;;;-1.32;100.00;103082.31;10474217;28;20048;-52
2022/01/11 04:25:03;;;;;;;74.40;32.33;;;;;;;-1.26;100.00;103085.06;10459299;28;20052;-51
2022/01/11 04:30:06;;;;;;;75.55;31.60;;;;;;;-1.28;100.00;103088.41;10459571;28;20048;-52
2022/01/11 04:35:09;;;;;;;63.50;30.00;;;;;;;-1.29;100.00;103100.38;10458401;28;20056;-55
2022/01/11 04:40:13;;;;;;;50.72;26.35;;;;;;;-1.22;100.00;103099.72;10459018;28;20045;-51
2022/01/11 04:45:16;;;;;;;82.15;32.65;;;;;;;-1.34;100.00;103107.09;10458479;28;20056;-53
2022/01/11 04:50:18;;;;;;;61.92;29.38;;;;;;;-1.40;100.00;103106.91;10458310;28;20068;-56
2022/01/11 04:55:21;;;;;;;60.05;28.63;;;;;;;-1.39;100.00;103104.38;10464802;28;20048;-54
2022/01/11 05:00:24;;;;;;;68.20;28.90;;;;;;;-1.42;100.00;103096.59;10460429;28;20071;-54
2022/01/11 05:05:29;;;;;;;60.47;29.02;;;;;;;-1.44;100.00;103087.09;10456867;28;20053;-54
2022/01/11 05:10:32;;;;;;;79.47;32.08;;;;;;;-1.43;100.00;103097.44;10458277;28;20044;-52
2022/01/11 05:15:34;;;;;;;59.08;28.15;;;;;;;-1.29;100.00;103099.50;10457677;28;20485;-51
2022/01/11 05:20:39;;;;;;;72.65;32.53;;;;;;;-1.54;100.00;103089.38;10457405;28;20049;-51
2022/01/11 05:25:42;;;;;;;65.30;32.25;;;;;;;-1.39;100.00;103099.25;10457259;28;20489;-51
2022/01/11 05:30:44;;;;;;;68.47;31.45;;;;;;;-1.35;100.00;103084.78;10457596;28;20084;-50
2022/01/11 05:35:47;;;;;;;67.60;31.27;;;;;;;-1.47;100.00;103095.56;10463693;28;20503;-53
2022/01/11 05:40:50;;;;;;;66.13;30.80;;;;;;;-1.43;100.00;103101.69;10455825;28;20053;-55
2022/01/11 05:45:52;;;;;;;85.00;36.40;;;;;;;-1.58;100.00;103102.97;10457154;28;20048;-51
2022/01/11 05:50:55;;;;;;;81.25;36.63;;;;;;;-1.63;100.00;103103.66;10456881;28;20081;-52
2022/01/11 05:55:57;;;;;;;80.75;34.25;;;;;;;-1.63;100.00;103114.81;10457231;28;20056;-56
2022/01/11 06:01:00;;;;;;;88.65;38.45;;;;;;;-1.55;100.00;103118.47;10456453;28;20433;-51
2022/01/11 06:06:06;;;;;;;86.32;39.67;;;;;;;-1.73;100.00;103107.63;10456137;28;20481;-49
2022/01/11 06:11:11;;;;;;;93.95;42.78;;;;;;;-1.65;100.00;103113.88;10469645;28;20045;-54
2022/01/11 06:16:13;;;;;;;100.70;42.15;;;;;;;-1.63;100.00;103135.38;10456348;28;20049;-53
2022/01/11 06:21:15;;;;;;;87.90;40.13;;;;;;;-1.71;100.00;103129.13;10455973;28;20405;-49
2022/01/11 06:26:18;;;;;;;97.35;43.30;;;;;;;-1.67;100.00;103143.78;10456044;28;20064;-50
2022/01/11 06:31:20;;;;;;;74.03;33.67;;;;;;;-1.59;100.00;103139.75;10455922;28;20045;-52
2022/01/11 06:36:23;;;;;;;67.55;35.05;;;;;;;-1.60;100.00;103148.28;10455932;28;20053;-51
2022/01/11 06:41:25;;;;;;;91.20;36.42;;;;;;;-1.69;100.00;103159.16;10455704;28;20049;-51
2022/01/11 06:46:28;;;;;;;68.78;33.90;;;;;;;-1.62;100.00;103167.06;10460626;28;20053;-56
2022/01/11 06:51:31;;;;;;;67.15;32.67;;;;;;;-1.65;100.00;103170.38;10462977;28;20052;-56
2022/01/11 06:56:34;;;;;;;65.57;31.75;;;;;;;-1.65;100.00;103172.97;10445370;28;20410;-52
2022/01/11 07:01:36;;;;;;;64.95;30.92;;;;;;;-1.37;100.00;103192.69;10462964;28;20059;-50
2022/01/11 07:06:39;;;;;;;55.20;27.95;;;;;;;-1.60;100.00;103202.22;10462507;28;20375;-55
2022/01/11 07:11:41;;;;;;;60.97;29.45;;;;;;;-1.63;100.00;103199.59;10462473;28;20397;-54
2022/01/11 07:16:48;;;;;;;66.18;32.05;;;;;;;-1.73;100.00;103197.53;10462149;28;20489;-52
2022/01/11 07:21:50;;;;;;;46.75;24.95;;;;;;;-1.64;100.00;103195.25;10462555;28;20063;-51
2022/01/11 07:26:53;;;;;;;60.47;29.13;;;;;;;-1.84;100.00;103189.50;10461811;28;20055;-51
2022/01/11 07:31:55;;;;;;;54.05;26.17;;;;;;;-1.70;100.00;103195.06;10462402;28;20060;-51
2022/01/11 07:36:58;;;;;;;49.05;25.48;;;;;;;-1.70;100.00;103213.03;10460589;28;20053;-54
2022/01/11 07:42:00;;;;;;;48.03;26.17;;;;;;;-1.63;100.00;103225.28;10461158;28;20045;-51
2022/01/11 07:47:04;;;;;;;46.05;24.75;;;;;;;-1.65;100.00;103223.47;10461311;28;20045;-54
2022/01/11 07:52:11;;;;;;;53.97;26.70;;;;;;;-1.59;100.00;103226.25;10461031;28;20462;-56
2022/01/11 07:57:13;;;;;;;48.28;25.95;;;;;;;-1.59;100.00;103216.84;10459087;28;20135;-54
2022/01/11 08:02:16;;;;;;;49.35;24.88;;;;;;;-1.53;100.00;103224.75;10461117;28;20053;-55
2022/01/11 08:07:20;;;;;;;48.78;26.30;;;;;;;-1.55;100.00;103225.50;10460777;28;20057;-51
2022/01/11 08:12:22;;;;;;;49.10;26.13;;;;;;;-1.49;100.00;103218.00;10460229;28;20049;-53
2022/01/11 08:17:24;;;;;;;53.70;25.42;;;;;;;-1.37;100.00;103226.09;10460511;28;20049;-56
2022/01/11 08:22:27;;;;;;;51.72;26.38;;;;;;;-1.31;100.00;103228.84;10458758;28;20044;-53
2022/01/11 08:27:29;;;;;;;54.50;26.92;;;;;;;-1.14;100.00;103236.22;10458389;28;20060;-52
2022/01/11 08:32:32;;;;;;;55.47;27.80;;;;;;;-1.28;100.00;103227.19;10459510;28;20052;-54
2022/01/11 08:37:34;;;;;;;53.60;27.05;;;;;;;-1.14;100.00;103218.22;10457972;28;20485;-56
2022/01/11 08:42:37;;;;;;;71.35;31.33;;;;;;;-1.00;100.00;103218.63;10459034;28;20051;-55
2022/01/11 08:47:39;;;;;;;55.03;26.27;;;;;;;-0.80;100.00;103214.06;10458769;28;20055;-52
2022/01/11 08:52:44;;;;;;;53.40;25.55;;;;;;;-0.78;100.00;103218.41;10458727;28;20071;-50
2022/01/11 08:57:47;;;;;;;53.65;26.90;;;;;;;-0.52;100.00;103218.28;10458665;28;20049;-53
2022/01/11 09:02:51;;;;;;;46.63;24.20;;;;;;;-0.46;100.00;103226.16;10458213;28;20417;-55
2022/01/11 09:07:53;;;;;;;52.08;24.77;;;;;;;-0.30;100.00;103235.19;10457431;28;20141;-54
2022/01/11 09:12:56;;;;;;;50.10;25.60;;;;;;;-0.33;100.00;103234.25;10458178;28;20413;-56
2022/01/11 09:17:58;;;;;;;61.03;28.30;;;;;;;-0.34;100.00;103235.06;10466433;28;20053;-56
2022/01/11 09:23:01;;;;;;;53.78;24.70;;;;;;;-0.09;100.00;103252.03;10457258;28;20371;-51
2022/01/11 09:28:04;;;;;;;51.05;25.23;;;;;;;1.36;100.00;103256.28;10457008;28;20481;-53
2022/01/11 09:33:06;;;;;;;49.35;28.45;;;;;;;3.76;100.00;103255.63;10455895;28;20049;-56
2022/01/11 09:38:09;;;;;;;42.55;25.10;;;;;;;4.28;100.00;103256.97;10457003;28;20493;-55
2022/01/11 09:43:13;;;;;;;41.20;25.30;;;;;;;4.28;99.29;103269.94;10457715;28;20064;-54
2022/01/11 09:48:24;;;;;;;40.38;24.67;;;;;;;6.59;91.45;103256.09;10456859;28;20045;-56
2022/01/11 09:53:27;;;;;;;35.92;23.48;;;;;;;4.05;90.12;103264.59;10455707;28;20522;-57
2022/01/11 09:58:29;;;;;;;41.45;23.58;;;;;;;3.42;96.99;103269.06;10458108;28;20048;-55
2022/01/11 10:03:52;;;;;;;34.78;20.27;;;;;;;3.03;100.00;103272.03;10456072;28;20053;-55
2022/01/11 10:09:07;;;;;;;;;;;;;;;3.56;100.00;103264.06;10456800;28;20051;-53
2022/01/11 10:14:25;;;;;;;43.83;21.98;;;;;;;2.31;100.00;103269.22;10456559;28;19924;-52
2022/01/11 10:19:27;;;;;;;42.80;22.10;;;;;;;2.73;100.00;103275.91;10458278;28;20049;-55
2022/01/11 10:24:42;;;;;;;41.50;23.05;;;;;;;2.07;100.00;103269.66;10465672;28;20076;-53
2022/01/11 10:29:50;;;;;;;39.10;21.25;;;;;;;1.84;100.00;103263.22;10463085;28;20064;-53
2022/01/11 10:34:55;;;;;;;43.88;22.23;;;;;;;1.50;100.00;103274.63;10464692;28;20041;-56
2022/01/11 10:40:05;;;;;;;33.10;19.08;;;;;;;1.81;100.00;103272.63;10465111;28;20048;-56
2022/01/11 10:45:09;;;;;;;38.95;20.83;;;;;;;1.81;100.00;103277.81;10462957;28;20412;-57
2022/01/11 10:50:18;;;;;;;43.05;19.50;;;;;;;1.85;100.00;103272.72;10464237;28;20053;-53
2022/01/11 10:55:23;;;;;;;38.25;22.02;;;;;;;1.54;100.00;103263.50;10463862;28;20520;-55
2022/01/11 11:00:35;;;;;;;37.08;20.05;;;;;;;1.69;100.00;103259.50;10463334;28;20051;-54
2022/01/11 11:05:51;;;;;;;39.95;18.92;;;;;;;1.70;100.00;103256.94;10462835;28;20485;-56
2022/01/11 11:10:56;;;;;;;35.15;20.00;;;;;;;1.99;100.00;103259.19;10462586;28;20041;-55
2022/01/11 11:16:09;;;;;;;39.33;19.30;;;;;;;1.80;100.00;103269.19;10464169;28;20063;-55
2022/01/11 11:21:25;;;;;;;36.08;19.40;;;;;;;2.07;100.00;103264.47;10461716;28;20052;-56
2022/01/11 11:26:33;;;;;;;34.17;18.55;;;;;;;1.72;100.00;103262.13;10462010;28;20394;-54
2022/01/11 11:31:35;;;;;;;36.97;20.00;;;;;;;1.79;100.00;103257.09;10461281;28;20053;-56
2022/01/11 11:36:40;;;;;;;36.53;20.20;;;;;;;2.06;100.00;103257.59;10461124;28;20056;-53
2022/01/11 11:41:45;;;;;;;39.80;21.25;;;;;;;2.18;100.00;103257.78;10461662;28;20049;-52
2022/01/11 11:46:52;;;;;;;33.70;18.83;;;;;;;2.71;100.00;103254.34;10460458;28;20051;-54
2022/01/11 11:51:54;;;;;;;33.42;18.63;;;;;;;2.75;100.00;103251.78;10464188;28;20059;-56
2022/01/11 11:57:01;;;;;;;34.25;19.42;;;;;;;3.19;100.00;103239.44;10460375;28;20067;-56
2022/01/11 12:02:03;;;;;;;29.52;18.73;;;;;;;4.28;100.00;103248.34;10460853;28;20045;-56
2022/01/11 12:07:32;;;;;;;28.80;17.20;;;;;;;3.71;98.41;103251.25;10460495;28;20050;-52
2022/01/11 12:12:43;;;;;;;28.42;18.00;;;;;;;4.13;100.00;103256.84;10459816;28;20040;-54
2022/01/11 12:17:45;;;;;;;29.00;16.83;;;;;;;3.65;100.00;103261.59;10460431;28;20048;-55
2022/01/11 12:22:53;;;;;;;30.15;18.13;;;;;;;3.37;100.00;103254.34;10458807;28;20045;-54
2022/01/11 12:28:04;;;;;;;28.23;17.77;;;;;;;3.61;100.00;103253.75;10460341;28;20049;-54
2022/01/11 12:33:16;;;;;;;34.83;19.13;;;;;;;3.45;100.00;103245.81;10461658;28;20044;-57
2022/01/11 12:38:18;;;;;;;34.75;18.80;;;;;;;3.38;100.00;103238.84;10458563;28;20052;-53
2022/01/11 12:43:42;;;;;;;36.38;18.13;;;;;;;3.88;100.00;103243.69;10457655;28;20428;-59
2022/01/11 12:48:53;;;;;;;31.30;18.17;;;;;;;3.86;99.71;103229.81;10458516;28;20052;-57
2022/01/11 12:54:23;;;;;;;31.80;19.83;;;;;;;3.42;100.00;103230.22;10458242;28;20057;-57
2022/01/11 12:59:29;;;;;;;33.72;18.25;;;;;;;3.41;100.00;103237.97;10458563;28;20053;-54
2022/01/11 13:04:46;;;;;;;32.30;19.60;;;;;;;3.34;100.00;103237.03;10458317;28;20049;-57
2022/01/11 13:10:10;;;;;;;35.67;20.25;;;;;;;3.41;100.00;103240.56;10460590;28;20045;-55
2022/01/11 13:15:37;;;;;;;31.90;18.27;;;;;;;3.29;100.00;103244.75;10458666;28;20044;-54
2022/01/11 13:20:48;;;;;;;31.83;20.15;;;;;;;2.89;100.00;103238.19;10456585;28;20136;-52
2022/01/11 13:26:26;;;;;;;31.75;18.90;;;;;;;2.86;100.00;103231.25;10458171;28;20049;-55
2022/01/11 13:31:31;;;;;;;34.45;19.92;;;;;;;2.43;100.00;103238.38;10448624;28;20481;-54
2022/01/11 13:36:38;;;;;;;28.90;17.95;;;;;;;2.56;100.00;103235.13;10456484;28;20049;-55
2022/01/11 13:41:48;;;;;;;32.50;19.52;;;;;;;2.75;100.00;103236.25;10457252;28;20048;-56
2022/01/11 13:46:54;;;;;;;35.22;19.48;;;;;;;2.45;100.00;103226.34;10460723;28;20056;-55
2022/01/11 13:51:59;;;;;;;32.90;19.52;;;;;;;2.51;100.00;103234.19;10456781;28;20048;-57
2022/01/11 13:57:05;;;;;;;31.80;18.90;;;;;;;2.65;100.00;103231.81;10455895;28;20049;-54
2022/01/11 14:02:17;;;;;;;41.08;19.60;;;;;;;2.22;100.00;103241.50;10456845;28;20041;-52
2022/01/11 14:07:24;;;;;;;28.20;17.88;;;;;;;2.03;100.00;103254.13;10456697;28;20056;-52
2022/01/11 14:12:27;;;;;;;33.65;20.80;;;;;;;1.85;100.00;103251.19;10456763;28;20056;-54
2022/01/11 14:17:50;;;;;;;33.95;19.33;;;;;;;2.01;100.00;103247.16;10456153;28;20062;-54
2022/01/11 14:22:55;;;;;;;35.05;19.30;;;;;;;2.01;100.00;103237.69;10455390;28;20056;-54
2022/01/11 14:28:04;;;;;;;33.15;18.63;;;;;;;2.08;100.00;103246.41;10456348;28;20045;-56
2022/01/11 14:33:23;;;;;;;37.03;20.63;;;;;;;1.93;100.00;103257.34;10456225;28;20103;-52
2022/01/11 14:38:40;;;;;;;38.20;20.25;;;;;;;1.78;100.00;103245.03;10455857;28;20049;-54
2022/01/11 14:43:57;;;;;;;31.90;20.10;;;;;;;1.65;100.00;103246.53;10454504;28;20420;-49
2022/01/11 14:49:11;;;;;;;31.02;19.88;;;;;;;1.77;100.00;103243.28;10456379;28;20045;-54
2022/01/11 14:54:17;;;;;;;34.25;19.25;;;;;;;1.45;100.00;103258.19;10455586;28;20053;-51
2022/01/11 14:59:21;;;;;;;33.13;19.77;;;;;;;1.41;100.00;103261.50;10455722;28;20052;-56
2022/01/11 15:04:29;;;;;;;41.88;20.92;;;;;;;1.44;100.00;103271.91;10459004;28;20049;-54
2022/01/11 15:09:37;;;;;;;29.42;18.05;;;;;;;1.25;100.00;103263.78;10462826;28;20055;-53
2022/01/11 15:14:41;;;;;;;39.53;20.10;;;;;;;1.07;100.00;103266.84;10461680;28;20115;-53
2022/01/11 15:19:44;;;;;;;38.15;19.13;;;;;;;0.91;100.00;103268.22;10462383;28;20049;-52
2022/01/11 15:24:47;;;;;;;36.25;20.83;;;;;;;0.93;100.00;103276.00;10462572;28;20068;-55
2022/01/11 15:29:49;;;;;;;31.80;18.42;;;;;;;0.78;100.00;103273.94;10461944;28;20052;-52
2022/01/11 15:34:52;;;;;;;36.60;19.45;;;;;;;0.73;100.00;103271.25;10462173;28;20045;-54
2022/01/11 15:39:54;;;;;;;31.35;18.02;;;;;;;0.66;100.00;103273.66;10463144;28;20374;-55
2022/01/11 15:44:56;;;;;;;40.45;20.13;;;;;;;0.71;100.00;103272.06;10461372;28;20499;-54
2022/01/11 15:49:59;;;;;;;39.35;21.38;;;;;;;0.46;100.00;103279.19;10461202;28;20045;-56
2022/01/11 15:55:01;;;;;;;38.70;19.50;;;;;;;0.55;100.00;103287.16;10461160;28;20057;-56
2022/01/11 16:00:05;;;;;;;39.75;21.40;;;;;;;0.42;100.00;103285.13;10460865;28;20122;-55
2022/01/11 16:05:08;;;;;;;37.85;19.48;;;;;;;0.34;100.00;103302.09;10460326;28;20103;-54
2022/01/11 16:10:10;;;;;;;40.15;22.50;;;;;;;0.34;100.00;103294.38;10460153;28;20076;-54
2022/01/11 16:15:13;;;;;;;45.00;22.17;;;;;;;0.34;100.00;103302.97;10460771;28;20049;-53
2022/01/11 16:20:15;;;;;;;48.00;23.98;;;;;;;0.58;100.00;103296.66;10458971;28;20060;-52
2022/01/11 16:25:18;;;;;;;38.33;21.85;;;;;;;0.53;100.00;103306.00;10461349;28;20045;-55
2022/01/11 16:30:28;;;;;;;46.15;23.17;;;;;;;0.54;100.00;103300.03;10459723;28;20063;-55
2022/01/11 16:35:32;;;;;;;45.28;23.75;;;;;;;0.72;100.00;103297.00;10459329;28;20505;-51
2022/01/11 16:45:40;;;;;;;42.17;23.60;;;;;;;0.95;100.00;103307.00;10457866;28;20045;-53
2022/01/11 16:50:43;;;;;;;43.63;22.10;;;;;;;1.10;100.00;103302.16;10457669;28;20482;-53
2022/01/11 16:55:45;;;;;;;41.80;21.10;;;;;;;1.21;100.00;103310.13;10458338;28;20045;-53
2022/01/11 17:00:48;;;;;;;40.25;23.92;;;;;;;1.07;100.00;103313.28;10461600;28;20056;-54
2022/01/11 17:05:51;;;;;;;36.95;21.83;;;;;;;1.25;100.00;103319.72;10457631;28;20060;-52
2022/01/11 17:10:53;;;;;;;38.75;21.77;;;;;;;1.14;100.00;103318.59;10458129;28;20057;-54
2022/01/11 17:15:55;;;;;;;33.95;19.95;;;;;;;1.17;100.00;103318.66;10457852;28;20049;-52
2022/01/11 17:20:58;;;;;;;49.47;22.85;;;;;;;1.25;100.00;103324.88;10457616;28;20488;-55
2022/01/11 17:26:00;;;;;;;46.95;25.65;;;;;;;1.15;100.00;103333.25;10457418;28;20055;-54
2022/01/11 17:31:03;;;;;;;46.83;24.13;;;;;;;0.89;100.00;103324.06;10456522;28;20493;-54
2022/01/11 17:36:06;;;;;;;36.03;21.50;;;;;;;0.93;100.00;103325.00;10457345;28;20110;-53
2022/01/11 17:41:11;;;;;;;43.80;23.10;;;;;;;0.81;100.00;103316.97;10459876;28;20055;-53
2022/01/11 17:46:13;;;;;;;42.72;23.70;;;;;;;0.69;100.00;103321.00;10456739;28;20408;-53
2022/01/11 17:51:16;;;;;;;48.15;23.00;;;;;;;0.76;100.00;103327.19;10456314;28;20489;-53
2022/01/11 17:56:19;;;;;;;45.10;23.55;;;;;;;0.89;100.00;103336.97;10456755;28;20045;-54
2022/01/11 18:01:22;;;;;;;40.28;22.17;;;;;;;1.04;100.00;103338.16;10456027;28;20056;-52
2022/01/11 18:06:44;;;;;;;38.00;21.73;;;;;;;0.68;100.00;103341.59;10456425;28;20048;-54
2022/01/11 18:11:48;;;;;;;38.17;21.88;;;;;;;0.65;100.00;103347.53;10455069;28;20052;-54
2022/01/11 18:16:52;;;;;;;46.40;22.77;;;;;;;0.93;100.00;103351.66;10458769;28;20049;-56
2022/01/11 18:21:54;;;;;;;39.08;21.80;;;;;;;1.01;100.00;103354.44;10456623;28;20044;-53
2022/01/11 18:26:57;;;;;;;40.42;23.00;;;;;;;0.77;100.00;103359.00;10456611;28;20052;-53
2022/01/11 18:31:59;;;;;;;44.72;23.58;;;;;;;0.55;100.00;103348.16;10454942;28;20044;-53
2022/01/11 18:37:02;;;;;;;40.17;21.90;;;;;;;0.60;100.00;103350.84;10455965;28;20072;-52
2022/01/11 18:42:05;;;;;;;39.42;22.23;;;;;;;0.49;100.00;103354.03;10460091;28;20049;-53
2022/01/11 18:47:08;;;;;;;55.47;24.13;;;;;;;0.52;100.00;103361.84;10463563;28;20041;-52
2022/01/11 18:52:10;;;;;;;50.83;24.13;;;;;;;0.50;100.00;103370.38;10463481;28;20266;-55
2022/01/11 18:57:12;;;;;;;51.53;23.45;;;;;;;0.64;100.00;103376.75;10465061;28;20049;-54
2022/01/11 19:02:15;;;;;;;42.90;23.80;;;;;;;0.50;100.00;103386.69;10463074;28;20424;-55
2022/01/11 19:07:17;;;;;;;45.53;21.90;;;;;;;0.43;100.00;103384.78;10462938;28;20484;-54
2022/01/11 19:12:19;;;;;;;44.90;22.73;;;;;;;0.48;100.00;103385.78;10461628;28;20049;-52
2022/01/11 19:17:24;;;;;;;44.28;22.98;;;;;;;0.30;100.00;103391.34;10462227;28;20053;-50
2022/01/11 19:22:27;;;;;;;41.20;22.58;;;;;;;0.17;100.00;103389.28;10462475;28;20053;-55
2022/01/11 19:27:31;;;;;;;52.08;24.58;;;;;;;0.18;100.00;103391.00;10462194;28;20049;-52
2022/01/11 19:32:33;;;;;;;51.05;24.05;;;;;;;0.33;100.00;103398.28;10461884;28;20401;-52
2022/01/11 19:37:36;;;;;;;50.20;25.25;;;;;;;0.24;100.00;103383.44;10461892;28;20049;-50
2022/01/11 19:42:38;;;;;;;38.85;21.10;;;;;;;0.26;100.00;103388.63;10461714;28;20056;-52
2022/01/11 19:47:44;;;;;;;35.55;20.85;;;;;;;0.31;100.00;103394.78;10461668;28;20056;-51
2022/01/11 19:52:50;;;;;;;32.83;17.85;;;;;;;0.28;100.00;103402.44;10459421;28;20241;-52
2022/01/11 19:57:53;;;;;;;27.25;15.88;;;;;;;0.48;100.00;103408.13;10460769;28;20416;-54
2022/01/11 20:02:57;;;;;;;27.30;16.80;;;;;;;0.30;100.00;103398.19;10459394;28;20056;-52
2022/01/11 20:08:00;;;;;;;33.55;18.27;;;;;;;0.37;100.00;103407.84;10460680;28;20099;-54
2022/01/11 20:13:03;;;;;;;34.65;18.50;;;;;;;0.28;100.00;103410.16;10460506;28;20049;-53
2022/01/11 20:18:07;;;;;;;40.83;19.95;;;;;;;0.21;100.00;103410.84;10460361;28;20056;-54
2022/01/11 20:28:30;;;;;;;38.40;19.95;;;;;;;0.42;100.00;103408.84;10460068;28;20055;-57
2022/01/11 20:33:34;;;;;;;33.45;17.10;;;;;;;0.32;100.00;103410.28;10459523;28;20410;-51
2022/01/11 20:38:36;;;;;;;39.28;18.38;;;;;;;0.43;100.00;103418.31;10459454;28;20055;-52
2022/01/11 20:43:40;;;;;;;29.55;16.75;;;;;;;0.49;100.00;103415.03;10458967;28;20045;-54
2022/01/11 20:48:42;;;;;;;24.38;14.65;;;;;;;0.71;100.00;103421.63;10461949;28;20049;-53
2022/01/11 20:53:44;;;;;;;37.80;17.13;;;;;;;0.73;100.00;103420.81;10457891;28;20489;-49
2022/01/11 20:58:47;;;;;;;32.65;18.35;;;;;;;0.65;100.00;103430.06;10458537;28;20516;-54
2022/01/11 21:03:50;;;;;;;29.27;17.08;;;;;;;0.80;100.00;103429.59;10458452;28;20049;-52
2022/01/11 21:08:52;;;;;;;38.33;18.92;;;;;;;0.82;100.00;103425.31;10458099;28;20397;-50
2022/01/11 21:13:54;;;;;;;34.92;17.55;;;;;;;0.92;100.00;103429.91;10458149;28;20056;-56
2022/01/11 21:24:18;;;;;;;28.63;14.38;;;;;;;1.13;100.00;103426.09;10457924;28;20041;-53
2022/01/11 21:29:20;;;;;;;22.65;14.00;;;;;;;1.14;100.00;103429.56;10457556;28;20053;-54
2022/01/11 21:34:23;;;;;;;22.42;12.50;;;;;;;1.42;100.00;103424.19;10457030;28;20416;-51
2022/01/11 21:39:25;;;;;;;17.80;11.35;;;;;;;1.76;100.00;103426.66;10457032;28;20409;-54
2022/01/11 21:44:31;;;;;;;22.88;12.35;;;;;;;1.93;100.00;103427.88;10457024;28;20060;-53
2022/01/11 21:49:35;;;;;;;18.70;11.95;;;;;;;2.08;100.00;103418.72;10455799;28;20049;-55
2022/01/11 21:54:38;;;;;;;19.48;11.45;;;;;;;2.04;100.00;103428.13;10457627;28;20057;-56
2022/01/11 21:59:41;;;;;;;16.65;11.00;;;;;;;2.14;100.00;103435.22;10455543;28;20057;-56
2022/01/11 22:04:45;;;;;;;19.70;11.25;;;;;;;2.17;100.00;103445.63;10456607;28;20057;-52
2022/01/11 22:09:48;;;;;;;19.73;11.90;;;;;;;2.09;100.00;103451.47;10456147;28;20045;-55
2022/01/11 22:19:53;;;;;;;21.88;12.43;;;;;;;2.03;100.00;103457.38;10464936;28;20057;-55
2022/01/11 22:24:56;;;;;;;25.35;13.35;;;;;;;2.16;100.00;103463.69;10464617;28;20444;-54
2022/01/11 22:29:58;;;;;;;23.25;14.02;;;;;;;2.12;100.00;103474.78;10464287;28;20413;-52
2022/01/11 22:35:01;;;;;;;32.60;17.58;;;;;;;1.86;100.00;103470.78;10464172;28;20497;-54
2022/01/11 22:40:06;;;;;;;29.98;17.15;;;;;;;1.83;100.00;103480.19;10463953;28;20409;-52
2022/01/11 22:45:08;;;;;;;29.88;18.90;;;;;;;1.76;100.00;103468.00;10467151;28;20045;-51
2022/01/11 22:50:11;;;;;;;24.75;15.18;;;;;;;1.91;100.00;103468.31;10463680;28;20421;-54
2022/01/11 22:55:14;;;;;;;31.60;16.98;;;;;;;1.88;100.00;103476.00;10463520;28;20056;-55
2022/01/11 23:00:16;;;;;;;25.38;15.25;;;;;;;2.03;100.00;103476.34;10463205;28;20052;-54
2022/01/11 23:05:19;;;;;;;27.45;16.55;;;;;;;1.91;100.00;103473.50;10462107;28;20071;-57